createdAt,value
2023-05-14T00:00:50.135Z,17.15
2023-05-14T00:06:06.051Z,17.58
2023-05-14T00:11:14.841Z,17.50
2023-05-14T00:16:19.847Z,17.75
2023-05-14T00:21:23.627Z,19.10
2023-05-14T00:26:29.407Z,19.96
2023-05-14T00:31:36.890Z,21.34
2023-05-14T00:36:43.379Z,22.36
2023-05-14T00:41:47.001Z,22.22
2023-05-14T00:46:52.152Z,21.73
2023-05-14T00:51:55.887Z,21.55
2023-05-14T00:57:02.142Z,21.92
2023-05-14T01:02:09.755Z,21.85
2023-05-14T01:07:19.146Z,22.55
2023-05-14T01:12:29.083Z,22.49
2023-05-14T01:17:39.790Z,21.29
2023-05-14T01:22:45.017Z,20.56
2023-05-14T01:27:54.719Z,21.28
2023-05-14T01:33:00.635Z,20.50
2023-05-14T01:38:08.580Z,20.54
2023-05-14T01:43:18.379Z,20.35
2023-05-14T01:48:24.252Z,19.84
2023-05-14T01:53:29.436Z,19.54
2023-05-14T01:58:33.283Z,19.31
2023-05-14T02:03:39.247Z,19.74
2023-05-14T02:08:44.532Z,19.17
2023-05-14T02:13:50.778Z,19.65
2023-05-14T02:18:56.906Z,20.57
2023-05-14T02:24:02.361Z,20.60
2023-05-14T02:29:05.975Z,20.93
2023-05-14T02:34:09.574Z,21.27
2023-05-14T02:39:14.428Z,20.90
2023-05-14T02:44:20.337Z,20.23
2023-05-14T02:49:26.328Z,20.61
2023-05-14T02:54:33.719Z,21.13
2023-05-14T02:59:37.410Z,21.68
2023-05-14T03:04:47.233Z,24.57
2023-05-14T03:09:55.392Z,21.96
2023-05-14T03:15:01.523Z,22.23
2023-05-14T03:20:06.058Z,22.29
2023-05-14T03:25:11.561Z,22.18
2023-05-14T03:30:15.369Z,22.29
2023-05-14T03:35:18.968Z,22.10
2023-05-14T03:40:26.303Z,22.61
2023-05-14T03:45:30.496Z,22.49
2023-05-14T03:50:36.592Z,22.23
2023-05-14T03:55:43.845Z,22.04
2023-05-14T04:00:50.987Z,21.43
2023-05-14T04:05:54.536Z,21.48
2023-05-14T04:10:59.699Z,24.80
2023-05-14T04:16:03.302Z,46.53
2023-05-14T04:21:07.090Z,24.68
2023-05-14T04:26:11.951Z,21.70
2023-05-14T04:31:16.299Z,21.57
2023-05-14T04:36:19.878Z,21.58
2023-05-14T04:41:27.422Z,21.58
2023-05-14T04:46:31.170Z,28.32
2023-05-14T04:51:34.884Z,23.99
2023-05-14T04:56:42.059Z,20.96
2023-05-14T05:01:48.428Z,20.25
2023-05-14T05:06:52.284Z,19.64
2023-05-14T05:11:57.312Z,19.09
2023-05-14T05:17:01.326Z,18.74
2023-05-14T05:22:05.074Z,19.15
2023-05-14T05:27:12.896Z,18.36
2023-05-14T05:32:16.918Z,19.02
2023-05-14T05:37:23.061Z,18.65
2023-05-14T05:42:27.981Z,21.20
2023-05-14T05:47:34.211Z,21.31
2023-05-14T05:52:38.339Z,30.36
2023-05-14T05:57:48.151Z,22.09
2023-05-14T06:02:51.917Z,17.55
2023-05-14T06:07:55.863Z,17.72
2023-05-14T06:13:05.530Z,29.21
2023-05-14T06:18:09.346Z,23.09
2023-05-14T06:23:13.185Z,18.58
2023-05-14T06:28:18.285Z,17.82
2023-05-14T06:33:29.651Z,17.49
2023-05-14T06:38:33.931Z,16.83
2023-05-14T06:43:40.963Z,16.03
2023-05-14T06:48:45.033Z,22.70
2023-05-14T06:53:48.918Z,20.53
2023-05-14T06:58:56.328Z,14.26
2023-05-14T07:04:02.466Z,12.57
2023-05-14T07:09:09.056Z,11.57
2023-05-14T07:14:13.966Z,14.73
2023-05-14T07:19:19.910Z,16.50
2023-05-14T07:24:25.657Z,10.93
2023-05-14T07:29:35.105Z,9.49
2023-05-14T07:34:41.039Z,8.90
2023-05-14T07:39:44.907Z,9.54
2023-05-14T07:44:51.356Z,9.32
2023-05-14T07:49:55.641Z,9.51
2023-05-14T07:55:02.054Z,9.98
2023-05-14T08:00:09.349Z,9.22
2023-05-14T08:05:19.468Z,8.89
2023-05-14T08:10:25.784Z,8.69
2023-05-14T08:15:31.013Z,8.68
2023-05-14T08:20:34.941Z,8.54
2023-05-14T08:25:38.835Z,7.60
2023-05-14T08:30:43.980Z,6.92
2023-05-14T08:35:47.632Z,8.18
2023-05-14T08:40:57.492Z,8.03
2023-05-14T08:46:07.149Z,7.78
2023-05-14T08:51:10.718Z,6.98
2023-05-14T08:56:19.181Z,6.61
2023-05-14T09:01:24.649Z,5.84
2023-05-14T09:06:28.775Z,5.87
2023-05-14T09:11:32.450Z,5.75
2023-05-14T09:16:38.124Z,5.79
2023-05-14T09:21:42.171Z,5.85
2023-05-14T09:26:45.827Z,5.68
2023-05-14T09:31:51.532Z,5.37
2023-05-14T09:36:59.075Z,5.46
2023-05-14T09:42:05.671Z,4.98
2023-05-14T09:47:10.659Z,5.46
2023-05-14T09:52:19.843Z,5.43
2023-05-14T09:57:27.680Z,5.54
2023-05-14T10:02:38.171Z,5.12
2023-05-14T10:07:45.552Z,5.09
2023-05-14T10:12:52.936Z,5.12
2023-05-14T10:18:05.102Z,5.22
2023-05-14T10:23:08.735Z,5.23
2023-05-14T10:28:15.106Z,5.38
2023-05-14T10:33:22.679Z,5.20
2023-05-14T10:38:29.345Z,5.15
2023-05-14T10:43:37.624Z,4.97
2023-05-14T10:48:44.688Z,10.02
2023-05-14T10:53:48.826Z,22.21
2023-05-14T10:58:59.461Z,10.13
2023-05-14T11:04:06.773Z,8.66
2023-05-14T11:09:10.758Z,10.09
2023-05-14T11:14:14.522Z,8.97
2023-05-14T11:19:22.713Z,5.34
2023-05-14T11:24:26.350Z,5.04
2023-05-14T11:29:32.267Z,4.71
2023-05-14T11:34:37.438Z,5.09
2023-05-14T11:39:47.348Z,5.28
2023-05-14T11:44:54.090Z,4.80
2023-05-14T11:50:01.971Z,4.77
2023-05-14T11:55:06.213Z,4.71
2023-05-14T12:00:13.556Z,4.49
2023-05-14T12:05:21.922Z,4.34
2023-05-14T12:10:25.886Z,4.46
2023-05-14T12:15:29.820Z,4.31
2023-05-14T12:20:34.931Z,4.31
2023-05-14T12:25:39.384Z,4.17
2023-05-14T12:30:42.925Z,4.08
2023-05-14T12:35:48.525Z,5.66
2023-05-14T12:40:54.205Z,4.37
2023-05-14T12:45:57.819Z,17.99
2023-05-14T12:51:02.761Z,27.59
2023-05-14T12:56:07.137Z,13.52
2023-05-14T13:01:10.688Z,8.26
2023-05-14T13:12:03.711Z,44.52
2023-05-14T13:17:09.688Z,28.67
2023-05-14T13:22:14.405Z,17.34
2023-05-14T13:27:21.459Z,10.05
2023-05-14T13:32:25.618Z,25.44
2023-05-14T13:37:29.380Z,9.12
2023-05-14T13:42:34.399Z,10.35
2023-05-14T13:47:40.563Z,9.95
2023-05-14T13:52:44.231Z,17.07
2023-05-14T13:57:49.216Z,18.45
2023-05-14T14:02:52.980Z,15.62
2023-05-14T14:08:00.940Z,15.37
2023-05-14T14:13:09.514Z,39.95
2023-05-14T14:18:13.946Z,15.65
2023-05-14T14:23:20.763Z,7.89
2023-05-14T14:28:25.938Z,12.06
2023-05-14T14:33:29.688Z,27.03
2023-05-14T14:38:33.255Z,8.68
2023-05-14T14:43:40.363Z,7.18
2023-05-14T14:48:44.068Z,7.49
2023-05-14T14:53:50.745Z,7.73
2023-05-14T14:58:58.288Z,4.71
2023-05-14T15:04:01.903Z,4.90
2023-05-14T15:09:08.399Z,8.15
2023-05-14T15:14:15.875Z,16.12
2023-05-14T15:19:19.534Z,7.09
2023-05-14T15:24:26.364Z,7.72
2023-05-14T15:29:31.450Z,10.37
2023-05-14T15:34:39.315Z,5.90
2023-05-14T15:39:42.821Z,5.34
2023-05-14T15:44:50.387Z,5.70
2023-05-14T15:49:54.122Z,11.90
2023-05-14T15:55:02.532Z,6.83
2023-05-14T16:00:12.699Z,5.11
2023-05-14T16:05:21.471Z,4.71
2023-05-14T16:10:25.330Z,4.96
2023-05-14T16:15:32.849Z,7.99
2023-05-14T16:20:38.817Z,4.88
2023-05-14T16:25:42.455Z,6.82
2023-05-14T16:30:47.416Z,11.72
2023-05-14T16:35:51.263Z,5.34
2023-05-14T16:40:54.820Z,8.49
2023-05-14T16:45:59.751Z,5.84
2023-05-14T16:51:03.439Z,6.80
2023-05-14T16:56:07.416Z,7.90
2023-05-14T17:01:12.408Z,6.19
2023-05-14T17:06:18.454Z,8.97
2023-05-14T17:11:22.328Z,9.78
2023-05-14T17:16:40.578Z,6.59
2023-05-14T17:21:46.073Z,6.80
2023-05-14T17:26:49.808Z,7.19
2023-05-14T17:31:57.275Z,6.24
2023-05-14T17:37:03.349Z,6.19
2023-05-14T17:42:09.911Z,10.46
2023-05-14T17:47:20.211Z,8.90
2023-05-14T17:52:23.769Z,7.01
2023-05-14T17:57:27.380Z,6.25
2023-05-14T18:02:32.320Z,6.94
2023-05-14T18:07:36.687Z,14.33
2023-05-14T18:12:40.404Z,9.03
2023-05-14T18:17:45.381Z,7.15
2023-05-14T18:22:49.381Z,7.05
2023-05-14T18:27:53.261Z,6.83
2023-05-14T18:32:59.369Z,7.37
2023-05-14T18:38:03.776Z,7.92
2023-05-14T18:43:07.465Z,7.22
2023-05-14T18:48:12.678Z,7.50
2023-05-14T18:53:16.311Z,7.73
2023-05-14T18:58:19.770Z,8.15
2023-05-14T19:03:24.832Z,8.25
2023-05-14T19:08:28.495Z,8.96
2023-05-14T19:13:34.177Z,8.85
2023-05-14T19:18:39.261Z,8.93
2023-05-14T19:23:42.976Z,9.20
2023-05-14T19:28:46.651Z,8.97
2023-05-14T19:33:53.253Z,8.87
2023-05-14T19:38:58.986Z,8.80
2023-05-14T19:44:02.569Z,8.90
2023-05-14T19:49:07.786Z,8.96
2023-05-14T19:54:11.392Z,8.46
2023-05-14T19:59:17.429Z,7.89
2023-05-14T20:04:23.625Z,8.46
2023-05-14T20:09:27.260Z,8.49
2023-05-14T20:14:32.043Z,10.02
2023-05-14T20:19:37.145Z,8.93
2023-05-14T20:24:41.199Z,8.79
2023-05-14T20:29:47.508Z,9.01
2023-05-14T20:34:52.585Z,9.06
2023-05-14T20:39:56.248Z,9.10
2023-05-14T20:44:59.993Z,8.82
2023-05-14T20:50:05.057Z,8.66
2023-05-14T20:55:10.416Z,8.90
2023-05-14T21:00:15.029Z,9.20
2023-05-14T21:05:22.175Z,8.75
2023-05-14T21:10:26.204Z,8.50
2023-05-14T21:15:32.769Z,8.70
2023-05-14T21:20:37.692Z,9.16
2023-05-14T21:25:41.402Z,9.09
2023-05-14T21:30:44.962Z,8.92
2023-05-14T21:35:49.990Z,8.89
2023-05-14T21:40:53.517Z,8.14
2023-05-14T21:45:58.362Z,8.27
2023-05-14T21:51:03.540Z,12.13
2023-05-14T21:56:08.200Z,10.19
2023-05-14T22:01:14.273Z,8.94
2023-05-14T22:06:21.457Z,8.71
2023-05-14T22:11:24.911Z,9.25
2023-05-14T22:16:28.388Z,8.76
2023-05-14T22:21:35.977Z,8.43
2023-05-14T22:26:39.703Z,8.78
2023-05-14T22:31:43.471Z,8.45
2023-05-14T22:36:48.517Z,8.10
2023-05-14T22:41:55.315Z,8.31
2023-05-14T22:47:01.291Z,8.12
2023-05-14T22:52:06.736Z,7.32
2023-05-14T22:57:10.424Z,7.60
2023-05-14T23:02:14.135Z,7.75
2023-05-14T23:07:19.552Z,7.53
2023-05-14T23:12:25.413Z,7.55
2023-05-14T23:17:29.090Z,7.77
2023-05-14T23:22:36.593Z,7.50
2023-05-14T23:27:42.829Z,7.64
2023-05-14T23:32:46.438Z,7.61
2023-05-14T23:37:51.435Z,7.23
2023-05-14T23:42:59.377Z,7.01
2023-05-14T23:48:03.059Z,6.95
2023-05-14T23:53:08.252Z,7.30
2023-05-14T23:58:11.981Z,7.01
